Time;durP1;ratioP1;P1;durP2;ratioP2;P2;SDS_P1;SDS_P2;PMS_P1;PMS_P2;Temp;Humidity;BMP_temperature;BMP_pressure;BME280_temperature;BME280_humidity;BME280_pressure;Samples;Min_cycle;Max_cycle;Signal;HPM_P1;HPM_P2
2021/10/26 00:01:41;;;;;;;9.67;6.30;;;10.20;99.90;;;;;;4998741;28;20450;-83
2021/10/26 00:04:15;;;;;;;12.60;6.33;;;10.20;99.90;;;;;;5005558;28;20494;-84
2021/10/26 00:06:44;;;;;;;10.37;5.67;;;10.20;99.90;;;;;;5005069;28;20460;-82
2021/10/26 00:09:11;;;;;;;9.53;5.60;;;10.30;99.90;;;;;;5000739;28;20911;-83
2021/10/26 00:11:38;;;;;;;9.40;5.43;;;10.30;99.90;;;;;;5006397;28;20474;-83
2021/10/26 00:14:08;;;;;;;7.93;6.20;;;10.10;99.90;;;;;;4999919;28;20466;-83
2021/10/26 00:16:35;;;;;;;10.00;5.83;;;10.10;99.90;;;;;;5001231;28;20486;-83
2021/10/26 00:19:02;;;;;;;10.67;7.03;;;10.20;99.90;;;;;;5003114;28;20479;-83
2021/10/26 00:21:32;;;;;;;8.93;6.00;;;10.20;99.90;;;;;;5007301;28;20931;-83
2021/10/26 00:24:01;;;;;;;10.30;6.20;;;10.20;99.90;;;;;;5005916;28;20584;-83
2021/10/26 00:26:28;;;;;;;10.07;6.43;;;10.20;99.90;;;;;;5004179;28;21036;-83
2021/10/26 00:28:56;;;;;;;11.70;6.87;;;10.20;99.90;;;;;;5008136;28;20521;-83
2021/10/26 00:31:26;;;;;;;9.57;6.03;;;10.20;99.90;;;;;;5012683;28;20445;-82
2021/10/26 00:33:53;;;;;;;8.20;5.97;;;10.20;99.90;;;;;;5010809;28;20454;-82
2021/10/26 00:36:21;;;;;;;9.20;5.63;;;10.20;99.90;;;;;;5003315;28;20491;-82
2021/10/26 00:38:48;;;;;;;9.57;6.50;;;10.30;99.90;;;;;;5009427;28;20530;-83
2021/10/26 00:41:19;;;;;;;11.97;7.00;;;10.30;99.90;;;;;;5008662;28;20471;-82
2021/10/26 00:43:46;;;;;;;9.40;6.50;;;10.40;99.90;;;;;;5002821;28;20872;-82
2021/10/26 00:46:13;;;;;;;14.13;7.23;;;10.50;99.90;;;;;;5002860;28;20448;-82
2021/10/26 00:48:40;;;;;;;10.93;5.80;;;10.50;99.90;;;;;;5002469;28;20469;-82
2021/10/26 00:51:09;;;;;;;11.67;6.83;;;10.40;99.90;;;;;;5002777;28;20515;-82
2021/10/26 00:53:39;;;;;;;8.30;6.33;;;10.40;99.90;;;;;;5001813;28;20497;-82
2021/10/26 00:56:07;;;;;;;9.67;6.93;;;10.50;99.90;;;;;;5002676;28;20490;-84
2021/10/26 00:58:36;;;;;;;9.17;6.47;;;10.50;99.90;;;;;;5002395;28;20478;-82
2021/10/26 01:01:03;;;;;;;9.47;6.80;;;10.50;99.90;;;;;;5002207;28;20870;-83
2021/10/26 01:03:30;;;;;;;10.70;6.30;;;10.50;99.90;;;;;;5002154;28;20528;-82
2021/10/26 01:05:57;;;;;;;9.50;6.73;;;10.50;99.90;;;;;;5001681;28;20462;-83
2021/10/26 01:08:24;;;;;;;9.53;6.87;;;10.60;99.90;;;;;;5002733;28;20497;-83
2021/10/26 01:10:52;;;;;;;8.83;6.30;;;10.70;99.90;;;;;;5001654;28;20516;-82
2021/10/26 01:13:22;;;;;;;9.30;7.07;;;10.80;99.90;;;;;;5001396;28;20905;-82
2021/10/26 01:15:56;;;;;;;10.43;6.70;;;10.80;99.90;;;;;;5000919;28;20498;-82
2021/10/26 01:18:24;;;;;;;10.23;6.87;;;10.80;99.90;;;;;;5000429;28;20541;-82
2021/10/26 01:20:52;;;;;;;10.93;6.70;;;10.80;99.90;;;;;;5000878;28;20517;-83
2021/10/26 01:23:20;;;;;;;10.30;6.50;;;10.80;99.90;;;;;;5002210;28;20528;-83
2021/10/26 01:25:47;;;;;;;8.27;6.30;;;10.90;99.90;;;;;;5009645;28;20480;-83
2021/10/26 01:28:14;;;;;;;7.50;6.20;;;10.90;99.90;;;;;;5001588;28;20453;-83
2021/10/26 01:30:48;;;;;;;9.60;6.43;;;11.00;99.90;;;;;;5000187;28;20429;-83
2021/10/26 01:33:15;;;;;;;9.50;5.80;;;11.10;99.90;;;;;;5000897;28;20942;-83
2021/10/26 01:35:42;;;;;;;10.40;7.47;;;11.10;99.90;;;;;;5000980;28;20471;-83
2021/10/26 01:38:11;;;;;;;8.50;6.40;;;11.10;99.90;;;;;;5001088;28;20440;-83
2021/10/26 01:40:38;;;;;;;14.50;7.73;;;11.10;99.90;;;;;;5001508;28;20531;-83
2021/10/26 01:43:06;;;;;;;8.53;6.80;;;11.10;99.90;;;;;;5001148;28;20465;-83
2021/10/26 01:45:33;;;;;;;11.50;7.60;;;11.10;99.90;;;;;;5001235;28;20516;-84
2021/10/26 01:48:00;;;;;;;9.27;7.00;;;11.20;99.90;;;;;;5006871;28;20497;-82
2021/10/26 01:50:27;;;;;;;10.37;7.27;;;11.30;99.90;;;;;;5010233;28;20426;-83
2021/10/26 01:52:54;;;;;;;9.83;6.93;;;11.40;99.90;;;;;;5003271;28;20508;-83
2021/10/26 01:55:23;;;;;;;10.47;6.77;;;11.40;99.90;;;;;;5001295;28;20462;-83
2021/10/26 01:57:50;;;;;;;11.43;7.30;;;11.40;99.90;;;;;;5003867;28;21041;-83
2021/10/26 02:00:18;;;;;;;13.30;8.00;;;11.40;99.90;;;;;;5010303;28;20526;-83
2021/10/26 02:02:46;;;;;;;10.40;7.20;;;11.30;99.90;;;;;;5001219;28;20530;-84
2021/10/26 02:05:14;;;;;;;10.57;7.13;;;11.30;99.90;;;;;;5011168;28;20472;-83
2021/10/26 02:07:41;;;;;;;11.43;7.50;;;11.30;99.90;;;;;;5011784;28;20453;-83
2021/10/26 02:10:08;;;;;;;11.23;8.17;;;11.30;99.90;;;;;;5004516;28;20428;-83
2021/10/26 02:12:37;;;;;;;9.37;6.97;;;11.30;99.90;;;;;;5001558;28;20432;-83
2021/10/26 02:15:05;;;;;;;10.80;7.40;;;11.20;99.90;;;;;;5001596;28;20426;-83
2021/10/26 02:17:32;;;;;;;11.40;7.50;;;11.30;99.90;;;;;;5006045;28;20558;-83
2021/10/26 02:19:59;;;;;;;10.67;8.13;;;11.50;99.90;;;;;;5010933;28;20470;-83
2021/10/26 02:22:26;;;;;;;10.17;7.20;;;11.50;99.90;;;;;;5004474;28;20438;-83
2021/10/26 02:24:53;;;;;;;13.33;7.33;;;11.40;99.90;;;;;;5004469;28;20487;-84
2021/10/26 02:27:19;;;;;;;9.50;7.30;;;11.40;99.90;;;;;;4997887;28;20554;-83
2021/10/26 02:29:48;;;;;;;11.33;7.70;;;11.30;99.90;;;;;;5000112;28;20811;-83
2021/10/26 02:32:15;;;;;;;10.80;7.20;;;11.30;99.90;;;;;;5000429;28;20421;-83
2021/10/26 02:34:42;;;;;;;11.67;8.97;;;11.20;99.90;;;;;;5000589;28;20434;-83
2021/10/26 02:37:09;;;;;;;14.97;7.53;;;11.20;99.90;;;;;;5002186;28;20442;-83
2021/10/26 02:39:36;;;;;;;14.37;8.90;;;11.20;99.90;;;;;;5002930;28;20455;-83
2021/10/26 02:42:03;;;;;;;14.20;8.50;;;11.20;99.90;;;;;;4999236;28;20470;-83
2021/10/26 02:44:30;;;;;;;10.97;8.17;;;11.30;99.90;;;;;;5000219;28;20525;-84
2021/10/26 02:46:59;;;;;;;10.50;8.57;;;11.40;99.90;;;;;;5006835;28;20467;-83
2021/10/26 02:49:26;;;;;;;11.53;8.00;;;11.40;99.90;;;;;;5009770;28;20459;-83
2021/10/26 02:51:53;;;;;;;13.43;8.27;;;11.50;99.90;;;;;;5010872;28;20458;-83
2021/10/26 02:54:21;;;;;;;12.40;8.60;;;11.50;99.90;;;;;;5009027;28;20455;-83
2021/10/26 02:56:49;;;;;;;10.03;7.50;;;11.50;99.90;;;;;;5006554;28;20483;-83
2021/10/26 02:59:18;;;;;;;14.53;8.00;;;11.50;99.90;;;;;;5001364;28;20459;-84
2021/10/26 03:01:46;;;;;;;11.43;8.40;;;11.50;99.90;;;;;;5000013;28;20792;-83
2021/10/26 03:04:16;;;;;;;12.23;8.20;;;11.40;99.90;;;;;;5006764;28;20446;-84
2021/10/26 03:06:44;;;;;;;10.63;8.13;;;11.40;99.90;;;;;;5001780;28;20589;-83
2021/10/26 03:09:13;;;;;;;13.23;7.70;;;11.50;99.90;;;;;;4999755;28;20526;-83
2021/10/26 03:11:41;;;;;;;11.57;7.57;;;11.50;99.90;;;;;;5002865;28;20468;-83
2021/10/26 03:14:09;;;;;;;11.10;7.30;;;11.40;99.90;;;;;;5009451;28;20487;-83
2021/10/26 03:16:36;;;;;;;11.47;7.80;;;11.40;99.90;;;;;;5008610;28;20476;-83
2021/10/26 03:19:05;;;;;;;12.53;8.60;;;11.30;99.90;;;;;;5009010;28;20470;-83
2021/10/26 03:21:35;;;;;;;11.67;8.07;;;11.30;99.90;;;;;;5008292;28;20940;-83
2021/10/26 03:24:04;;;;;;;12.83;8.07;;;11.30;99.90;;;;;;5009741;28;20475;-83
2021/10/26 03:26:31;;;;;;;10.43;8.13;;;11.40;99.90;;;;;;5006335;28;20487;-83
2021/10/26 03:29:01;;;;;;;10.43;8.10;;;11.30;99.90;;;;;;5014818;28;20537;-83
2021/10/26 03:31:31;;;;;;;10.30;7.97;;;11.30;99.90;;;;;;5009898;28;20422;-83
2021/10/26 03:33:58;;;;;;;12.20;8.60;;;11.30;99.90;;;;;;5007601;28;20573;-83
2021/10/26 03:36:25;;;;;;;10.90;8.20;;;11.30;99.90;;;;;;5001678;28;20496;-83
2021/10/26 03:38:54;;;;;;;11.17;8.70;;;11.30;99.90;;;;;;5001752;28;20457;-84
2021/10/26 03:41:21;;;;;;;15.57;8.90;;;11.30;99.90;;;;;;5001059;28;20451;-83
2021/10/26 03:43:48;;;;;;;12.23;8.73;;;11.40;99.90;;;;;;5001634;28;20455;-84
2021/10/26 03:46:15;;;;;;;14.30;7.97;;;11.40;99.90;;;;;;5003260;28;20589;-84
2021/10/26 03:48:43;;;;;;;12.23;9.40;;;11.40;99.90;;;;;;5003863;28;20492;-84
2021/10/26 03:51:10;;;;;;;13.60;9.10;;;11.40;99.90;;;;;;5005485;28;20513;-84
2021/10/26 03:53:37;;;;;;;14.40;9.33;;;11.30;99.90;;;;;;5016745;28;20452;-84
2021/10/26 03:56:06;;;;;;;13.90;8.60;;;11.30;99.90;;;;;;5013852;28;20469;-85
2021/10/26 03:58:34;;;;;;;11.90;8.77;;;11.30;99.90;;;;;;5017834;28;20845;-84
2021/10/26 04:01:01;;;;;;;12.17;9.80;;;11.30;99.90;;;;;;5012696;28;20451;-84
2021/10/26 04:03:28;;;;;;;14.20;9.77;;;11.30;99.90;;;;;;5009513;28;20475;-84
2021/10/26 04:06:00;;;;;;;11.73;8.43;;;11.20;99.90;;;;;;5009711;28;20473;-84
2021/10/26 04:08:31;;;;;;;15.50;9.60;;;11.20;99.90;;;;;;5009101;28;20410;-84
2021/10/26 04:11:00;;;;;;;11.77;9.90;;;11.20;99.90;;;;;;5008849;28;20439;-84
2021/10/26 04:13:28;;;;;;;16.90;10.50;;;11.20;99.90;;;;;;5009053;28;20481;-84
2021/10/26 04:15:55;;;;;;;12.83;10.23;;;11.10;99.90;;;;;;5009355;28;20480;-85
2021/10/26 04:18:23;;;;;;;14.10;10.80;;;11.10;99.90;;;;;;5008992;28;20940;-85
2021/10/26 04:20:50;;;;;;;12.17;9.13;;;11.00;99.90;;;;;;5012660;28;20447;-85
2021/10/26 04:23:17;;;;;;;14.90;9.60;;;11.10;99.90;;;;;;5008517;28;20824;-84
2021/10/26 04:25:44;;;;;;;14.17;9.67;;;11.10;99.90;;;;;;5008092;28;20504;-84
2021/10/26 04:28:11;;;;;;;11.20;9.23;;;11.40;99.90;;;;;;5009546;28;20433;-85
2021/10/26 04:30:39;;;;;;;13.40;9.20;;;11.30;99.90;;;;;;5009597;28;20429;-84
2021/10/26 04:33:07;;;;;;;13.00;9.80;;;11.30;99.90;;;;;;5009242;28;20469;-86
2021/10/26 04:35:35;;;;;;;13.50;10.17;;;11.30;99.90;;;;;;5009313;28;20466;-86
2021/10/26 04:38:02;;;;;;;12.50;9.90;;;11.30;99.90;;;;;;5038906;23;20506;-79
2021/10/26 04:40:29;;;;;;;13.93;10.30;;;11.20;99.90;;;;;;5029726;28;20526;-79
2021/10/26 04:42:56;;;;;;;14.27;10.60;;;11.10;99.90;;;;;;5036155;28;20491;-78
2021/10/26 04:45:23;;;;;;;14.53;10.07;;;11.30;99.90;;;;;;5028187;28;20577;-79
2021/10/26 04:47:51;;;;;;;17.20;10.60;;;11.10;99.90;;;;;;5024804;28;20568;-79
2021/10/26 04:50:19;;;;;;;16.70;10.57;;;11.10;99.90;;;;;;5023043;28;20931;-79
2021/10/26 04:52:46;;;;;;;14.50;10.63;;;11.10;99.90;;;;;;5022533;28;20428;-80
2021/10/26 04:55:14;;;;;;;14.20;10.40;;;11.10;99.90;;;;;;5024006;28;20457;-79
2021/10/26 04:57:41;;;;;;;14.27;10.77;;;11.00;99.90;;;;;;5030164;28;20472;-77
2021/10/26 05:00:10;;;;;;;12.70;10.27;;;11.10;99.90;;;;;;5033891;28;20920;-78
2021/10/26 05:02:37;;;;;;;16.00;10.10;;;11.10;99.90;;;;;;5029263;28;20898;-79
2021/10/26 05:05:06;;;;;;;13.87;10.30;;;11.10;99.90;;;;;;5020465;28;20536;-80
2021/10/26 05:07:34;;;;;;;15.20;10.50;;;11.10;99.90;;;;;;5019291;28;20481;-77
2021/10/26 05:10:05;;;;;;;13.40;10.80;;;11.20;99.90;;;;;;5020469;28;20462;-78
2021/10/26 05:12:32;;;;;;;14.90;10.17;;;11.20;99.90;;;;;;5019722;28;20915;-79
2021/10/26 05:14:59;;;;;;;12.23;10.27;;;11.10;99.90;;;;;;5019904;28;20455;-79
2021/10/26 05:17:26;;;;;;;13.00;10.73;;;11.10;99.90;;;;;;5019776;28;20473;-79
2021/10/26 05:19:54;;;;;;;14.40;11.00;;;11.10;99.90;;;;;;5020014;28;20569;-81
2021/10/26 05:22:24;;;;;;;14.10;10.50;;;11.10;99.90;;;;;;5022823;28;20962;-79
2021/10/26 05:24:52;;;;;;;16.90;10.73;;;11.10;99.90;;;;;;5018527;28;20790;-78
2021/10/26 05:27:19;;;;;;;16.00;11.20;;;11.10;99.90;;;;;;5021147;28;20865;-78
2021/10/26 05:29:46;;;;;;;14.10;10.50;;;11.10;99.90;;;;;;5019005;28;20458;-79
2021/10/26 05:32:14;;;;;;;15.13;9.70;;;11.10;99.90;;;;;;5019151;28;20463;-79
2021/10/26 05:34:41;;;;;;;14.43;9.90;;;11.20;99.90;;;;;;5019726;28;20508;-79
2021/10/26 05:37:10;;;;;;;12.13;9.70;;;11.10;99.90;;;;;;5020338;28;20640;-78
2021/10/26 05:39:39;;;;;;;15.30;10.30;;;11.10;99.90;;;;;;5020412;28;20967;-78
2021/10/26 05:42:06;;;;;;;14.77;9.70;;;11.20;99.90;;;;;;5018975;28;20999;-79
2021/10/26 05:44:33;;;;;;;14.90;10.77;;;11.20;99.90;;;;;;5018833;28;20935;-79
2021/10/26 05:47:00;;;;;;;14.33;10.63;;;11.10;99.90;;;;;;5023308;28;20494;-78
2021/10/26 05:49:27;;;;;;;12.67;9.77;;;11.20;99.90;;;;;;5018275;28;20435;-80
2021/10/26 05:51:54;;;;;;;13.93;9.83;;;11.10;99.90;;;;;;5018416;28;20465;-78
2021/10/26 05:54:21;;;;;;;12.33;10.23;;;11.20;99.90;;;;;;5020362;28;20461;-79
2021/10/26 05:56:49;;;;;;;12.80;9.97;;;11.30;99.90;;;;;;5025594;28;20759;-78
2021/10/26 05:59:16;;;;;;;13.80;9.90;;;11.20;99.90;;;;;;5021684;28;20440;-79
2021/10/26 06:01:42;;;;;;;14.37;10.80;;;11.30;99.90;;;;;;5022922;28;20465;-80
2021/10/26 06:04:09;;;;;;;19.10;11.80;;;11.30;99.90;;;;;;5023409;28;20481;-78
2021/10/26 06:06:37;;;;;;;13.83;9.87;;;11.30;99.90;;;;;;5021312;28;20486;-80
2021/10/26 06:09:04;;;;;;;15.23;11.07;;;11.20;99.90;;;;;;5021151;28;20481;-80
2021/10/26 06:11:32;;;;;;;11.30;9.40;;;11.20;99.90;;;;;;5022616;28;20458;-79
2021/10/26 06:14:03;;;;;;;13.67;9.60;;;11.10;99.90;;;;;;5022843;28;20897;-85
2021/10/26 06:16:30;;;;;;;15.20;11.70;;;11.00;99.90;;;;;;5023370;28;20485;-78
2021/10/26 06:18:58;;;;;;;17.67;10.53;;;10.90;99.90;;;;;;5031043;28;20455;-79
2021/10/26 06:21:25;;;;;;;16.77;11.07;;;10.90;99.90;;;;;;5029857;28;20492;-79
2021/10/26 06:23:52;;;;;;;15.47;11.40;;;11.00;99.90;;;;;;5020492;28;20539;-78
2021/10/26 06:26:19;;;;;;;14.77;10.53;;;11.10;99.90;;;;;;5019695;28;20564;-81
2021/10/26 06:28:47;;;;;;;20.07;12.63;;;11.10;99.90;;;;;;5024078;28;20546;-80
2021/10/26 06:31:15;;;;;;;13.07;10.77;;;11.10;99.90;;;;;;5020380;28;20455;-79
2021/10/26 06:33:42;;;;;;;15.63;11.50;;;11.10;99.90;;;;;;5017310;28;20431;-79
2021/10/26 06:36:09;;;;;;;16.30;11.60;;;11.20;99.90;;;;;;5017981;28;20456;-79
2021/10/26 06:38:36;;;;;;;20.30;10.87;;;11.30;99.90;;;;;;5018837;28;20464;-78
2021/10/26 06:41:04;;;;;;;18.03;12.17;;;11.30;99.90;;;;;;5016726;28;20442;-78
2021/10/26 06:43:31;;;;;;;17.20;11.23;;;11.30;99.90;;;;;;5016347;28;20429;-78
2021/10/26 06:45:58;;;;;;;13.90;11.00;;;11.30;99.90;;;;;;5022515;28;20498;-77
2021/10/26 06:48:26;;;;;;;21.67;13.23;;;11.40;99.90;;;;;;5019376;28;20471;-83
2021/10/26 06:50:54;;;;;;;16.97;12.20;;;11.40;99.90;;;;;;5022365;28;20542;-84
2021/10/26 06:53:22;;;;;;;15.13;11.83;;;11.40;99.90;;;;;;5017590;28;20436;-78
2021/10/26 06:55:49;;;;;;;15.23;11.90;;;11.40;99.90;;;;;;5017490;28;20445;-78
2021/10/26 06:58:16;;;;;;;18.67;12.17;;;11.40;99.90;;;;;;5016674;28;20445;-79
2021/10/26 07:00:43;;;;;;;16.80;11.90;;;11.50;99.90;;;;;;5017339;28;20494;-79
2021/10/26 07:03:10;;;;;;;13.40;10.93;;;11.50;99.90;;;;;;5017142;28;20917;-79
2021/10/26 07:05:39;;;;;;;14.13;11.47;;;11.60;99.90;;;;;;5017479;28;20512;-80
2021/10/26 07:08:07;;;;;;;16.47;11.07;;;11.60;99.90;;;;;;5023856;28;20441;-79
2021/10/26 07:10:34;;;;;;;19.00;11.13;;;11.70;99.90;;;;;;5020228;28;20421;-79
2021/10/26 07:13:03;;;;;;;13.80;10.83;;;11.70;99.90;;;;;;5022453;28;20425;-78
2021/10/26 07:15:32;;;;;;;17.53;10.97;;;11.70;99.90;;;;;;5018150;28;20453;-79
2021/10/26 07:17:59;;;;;;;14.93;11.50;;;11.80;99.90;;;;;;5016974;28;20462;-80
2021/10/26 07:20:26;;;;;;;15.17;11.57;;;11.80;99.90;;;;;;5016408;28;20436;-78
2021/10/26 07:22:55;;;;;;;16.10;11.43;;;11.90;99.90;;;;;;5016064;28;20412;-79
2021/10/26 07:25:24;;;;;;;12.50;10.57;;;12.00;99.90;;;;;;5019915;28;20420;-80
2021/10/26 07:27:57;;;;;;;15.73;11.20;;;12.00;99.90;;;;;;5024890;28;20468;-78
2021/10/26 07:30:24;;;;;;;15.20;11.60;;;12.10;99.90;;;;;;5020620;28;20442;-78
2021/10/26 07:32:51;;;;;;;14.93;11.20;;;12.00;99.90;;;;;;5016547;28;20933;-78
2021/10/26 07:35:18;;;;;;;14.07;10.40;;;12.10;99.90;;;;;;5017618;28;20938;-79
2021/10/26 07:37:46;;;;;;;12.20;10.10;;;12.10;99.90;;;;;;5017563;28;20464;-78
2021/10/26 07:40:17;;;;;;;15.77;10.40;;;12.00;99.90;;;;;;5017154;28;20593;-78
2021/10/26 07:42:44;;;;;;;12.20;9.90;;;12.00;99.90;;;;;;5018040;28;20434;-79
2021/10/26 07:45:11;;;;;;;12.53;9.90;;;12.00;99.90;;;;;;5018825;28;20520;-79
2021/10/26 07:47:39;;;;;;;15.03;10.90;;;12.10;99.90;;;;;;5018111;28;20794;-78
2021/10/26 07:50:07;;;;;;;13.93;10.60;;;12.20;99.90;;;;;;5017679;28;20425;-78
2021/10/26 07:52:35;;;;;;;15.37;10.73;;;12.20;99.90;;;;;;5016842;28;20497;-79
2021/10/26 07:55:02;;;;;;;18.93;12.27;;;12.20;99.90;;;;;;5019138;28;20505;-78
2021/10/26 07:57:31;;;;;;;15.10;11.20;;;12.40;99.90;;;;;;5022593;28;20468;-79
2021/10/26 07:59:58;;;;;;;14.17;10.07;;;12.50;99.90;;;;;;5017025;28;20432;-78
2021/10/26 08:02:26;;;;;;;13.90;10.03;;;12.50;99.90;;;;;;5017953;28;20450;-79
2021/10/26 08:04:55;;;;;;;19.00;10.80;;;12.60;99.90;;;;;;5017239;28;20803;-77
2021/10/26 08:07:23;;;;;;;15.93;10.53;;;12.70;99.90;;;;;;5016363;28;20546;-78
2021/10/26 08:09:51;;;;;;;15.77;10.27;;;12.80;99.90;;;;;;5017134;28;20531;-79
2021/10/26 08:12:19;;;;;;;15.90;11.60;;;12.90;99.90;;;;;;5017918;28;20444;-79
2021/10/26 08:14:48;;;;;;;15.77;11.47;;;13.00;99.90;;;;;;5017848;28;20453;-79
2021/10/26 08:17:15;;;;;;;16.27;11.03;;;13.10;99.90;;;;;;5018543;28;20468;-78
2021/10/26 08:19:43;;;;;;;18.43;11.90;;;13.20;99.90;;;;;;5017653;28;20482;-80
2021/10/26 08:22:14;;;;;;;19.40;11.93;;;13.30;99.90;;;;;;5017903;28;20474;-80
2021/10/26 08:24:42;;;;;;;14.83;10.40;;;13.40;99.90;;;;;;5018064;28;20438;-81
2021/10/26 08:27:12;;;;;;;16.17;10.57;;;13.50;99.90;;;;;;5017287;28;20560;-79
2021/10/26 08:29:45;;;;;;;15.93;10.70;;;13.50;99.90;;;;;;5017049;28;20960;-78
2021/10/26 08:35:21;;;;;;;17.47;10.97;;;13.60;99.90;;;;;;5027317;28;20950;-79
2021/10/26 08:37:50;;;;;;;17.10;11.77;;;13.60;99.90;;;;;;5016468;28;20497;-78
2021/10/26 08:40:18;;;;;;;17.07;10.80;;;13.70;99.90;;;;;;5020110;28;20449;-78
2021/10/26 08:42:47;;;;;;;22.03;12.17;;;13.80;99.90;;;;;;5021681;28;20419;-79
2021/10/26 08:45:15;;;;;;;19.43;10.90;;;13.90;99.90;;;;;;5021234;28;20447;-78
2021/10/26 08:47:44;;;;;;;17.20;10.23;;;14.00;99.90;;;;;;5019230;28;20560;-78
2021/10/26 08:50:11;;;;;;;18.40;10.57;;;14.20;99.90;;;;;;5021932;28;20491;-80
2021/10/26 08:52:37;;;;;;;11.77;8.87;;;14.10;99.90;;;;;;5021690;28;20461;-79
2021/10/26 08:55:07;;;;;;;13.23;9.30;;;14.30;99.90;;;;;;5024655;28;20480;-79
2021/10/26 08:57:35;;;;;;;11.60;9.80;;;14.30;99.90;;;;;;5023086;28;20470;-79
2021/10/26 09:00:05;;;;;;;17.03;10.90;;;14.40;99.90;;;;;;5033840;28;20461;-79
2021/10/26 09:02:37;;;;;;;13.27;10.27;;;14.40;99.90;;;;;;5033056;28;20515;-79
2021/10/26 09:05:14;;;;;;;13.03;10.47;;;14.40;99.90;;;;;;5029643;28;20447;-78
2021/10/26 09:07:41;;;;;;;12.83;9.83;;;14.60;99.90;;;;;;5026912;28;20490;-78
2021/10/26 09:10:14;;;;;;;13.73;9.20;;;14.70;99.90;;;;;;5028741;28;20804;-79
2021/10/26 09:18:26;;;;;;;11.87;8.33;;;15.00;99.90;;;;;;4987876;28;20423;-78
2021/10/26 09:20:55;;;;;;;10.00;7.60;;;15.10;99.90;;;;;;5009289;28;20455;-78
2021/10/26 09:23:26;;;;;;;10.23;7.67;;;15.20;99.90;;;;;;5022208;28;20493;-78
2021/10/26 09:25:58;;;;;;;9.50;6.87;;;15.30;99.90;;;;;;5019465;28;20477;-79
2021/10/26 09:28:26;;;;;;;10.07;6.80;;;15.40;99.90;;;;;;5017921;28;20504;-79
2021/10/26 09:31:01;;;;;;;14.20;5.80;;;15.50;99.90;;;;;;5019260;28;20810;-79
2021/10/26 09:33:38;;;;;;;8.03;5.70;;;15.60;99.90;;;;;;5019810;28;20512;-83
2021/10/26 09:36:29;;;;;;;7.10;4.40;;;15.60;99.90;;;;;;5025056;28;20488;-80
2021/10/26 09:39:07;;;;;;;6.40;4.30;;;15.70;99.90;;;;;;5023283;28;20562;-79
2021/10/26 09:41:36;;;;;;;6.97;4.97;;;15.70;99.90;;;;;;5025861;28;20443;-79
2021/10/26 09:44:09;;;;;;;7.60;3.60;;;15.60;99.90;;;;;;5030017;28;21034;-78
2021/10/26 09:46:36;;;;;;;8.33;4.50;;;15.60;99.90;;;;;;5029134;28;20494;-79
2021/10/26 09:49:03;;;;;;;7.93;5.10;;;15.50;99.90;;;;;;5024165;28;20589;-79
2021/10/26 09:51:34;;;;;;;8.50;4.73;;;15.40;99.90;;;;;;5019408;28;20467;-80
2021/10/26 09:54:00;;;;;;;8.40;5.17;;;15.50;99.90;;;;;;5019945;28;20445;-81
2021/10/26 09:56:27;;;;;;;7.80;4.80;;;15.50;99.90;;;;;;5019609;28;20485;-83
2021/10/26 09:59:15;;;;;;;8.40;4.97;;;15.50;99.90;;;;;;5019997;28;20467;-80
2021/10/26 10:01:53;;;;;;;6.90;4.40;;;15.70;99.90;;;;;;5019970;28;20492;-81
2021/10/26 10:04:31;;;;;;;7.27;4.33;;;15.70;99.90;;;;;;5019814;28;20528;-81
2021/10/26 10:06:59;;;;;;;7.30;4.10;;;15.60;99.90;;;;;;5019915;28;20503;-81
2021/10/26 10:09:26;;;;;;;6.57;3.57;;;15.70;99.90;;;;;;5021931;28;20434;-81
2021/10/26 10:12:14;;;;;;;6.97;3.90;;;15.70;99.90;;;;;;5023848;28;20513;-80
2021/10/26 10:14:41;;;;;;;6.43;3.70;;;15.70;99.90;;;;;;5019166;28;20429;-80
2021/10/26 10:17:09;;;;;;;5.40;3.50;;;15.60;99.90;;;;;;5023953;28;20451;-82
2021/10/26 10:19:37;;;;;;;4.60;3.20;;;15.60;99.90;;;;;;5023209;28;20455;-81
2021/10/26 10:22:09;;;;;;;7.03;3.83;;;15.60;99.90;;;;;;5023860;28;20444;-80
2021/10/26 10:24:40;;;;;;;7.47;3.70;;;15.80;99.90;;;;;;5027917;28;20436;-80
2021/10/26 10:27:08;;;;;;;7.70;3.87;;;15.80;99.90;;;;;;5035642;28;20483;-80
2021/10/26 10:29:38;;;;;;;5.13;3.53;;;15.80;99.90;;;;;;5028091;28;20482;-81
2021/10/26 10:32:06;;;;;;;6.80;3.60;;;16.00;99.90;;;;;;5025309;28;20411;-80
2021/10/26 10:34:35;;;;;;;6.13;2.63;;;16.10;99.90;;;;;;5028112;28;20544;-81
2021/10/26 10:37:02;;;;;;;8.50;3.83;;;16.00;99.90;;;;;;5022920;28;20498;-82
2021/10/26 10:39:34;;;;;;;6.60;3.40;;;16.10;99.90;;;;;;5048043;23;20474;-84
2021/10/26 10:42:12;;;;;;;5.77;4.00;;;16.20;99.90;;;;;;5025020;28;20464;-85
2021/10/26 10:44:40;;;;;;;6.00;3.10;;;16.30;99.90;;;;;;5030816;28;20479;-84
2021/10/26 10:47:11;;;;;;;5.80;3.03;;;16.40;99.90;;;;;;5026117;28;20465;-85
2021/10/26 10:49:49;;;;;;;8.67;3.63;;;16.40;99.90;;;;;;5024886;28;20474;-84
2021/10/26 10:52:23;;;;;;;14.90;5.03;;;16.60;99.90;;;;;;5025071;28;20467;-84
2021/10/26 10:54:53;;;;;;;8.80;4.13;;;16.50;99.90;;;;;;5032152;28;20439;-84
2021/10/26 10:57:23;;;;;;;5.50;3.33;;;16.50;99.90;;;;;;5034942;28;20439;-84
2021/10/26 10:59:52;;;;;;;6.23;3.23;;;16.60;99.90;;;;;;5025523;28;20480;-84
2021/10/26 11:02:26;;;;;;;4.20;2.40;;;16.60;99.90;;;;;;5022478;28;20496;-84
2021/10/26 11:04:55;;;;;;;5.53;3.10;;;16.80;99.90;;;;;;5023950;28;20435;-85
2021/10/26 11:07:51;;;;;;;4.60;2.80;;;16.60;99.90;;;;;;5026596;28;20574;-84
2021/10/26 11:10:22;;;;;;;8.57;3.40;;;16.70;99.90;;;;;;5025113;28;20433;-84
2021/10/26 11:12:52;;;;;;;6.70;2.77;;;16.60;99.90;;;;;;5026429;28;20483;-85
2021/10/26 11:15:43;;;;;;;5.80;3.07;;;16.70;99.90;;;;;;5026840;28;20448;-84
2021/10/26 11:18:10;;;;;;;6.10;2.73;;;16.70;99.90;;;;;;5021170;28;20444;-84
2021/10/26 11:20:42;;;;;;;6.67;2.60;;;16.70;99.90;;;;;;5023911;28;20462;-85
2021/10/26 11:23:14;;;;;;;7.37;4.00;;;16.70;99.90;;;;;;5024516;28;20500;-84
2021/10/26 11:25:45;;;;;;;9.60;3.60;;;16.50;99.90;;;;;;5024066;28;20448;-84
2021/10/26 11:28:37;;;;;;;6.20;2.47;;;16.60;99.90;;;;;;5023615;28;20503;-84
2021/10/26 11:31:15;;;;;;;5.37;2.97;;;16.60;99.90;;;;;;5011132;28;20963;-85
2021/10/26 11:33:52;;;;;;;8.47;3.43;;;16.50;99.90;;;;;;5028847;28;20808;-85
2021/10/26 11:36:19;;;;;;;4.90;2.80;;;16.70;99.90;;;;;;5026220;28;20451;-84
2021/10/26 11:38:51;;;;;;;4.90;2.87;;;16.80;99.90;;;;;;5022461;28;20491;-85
2021/10/26 11:41:25;;;;;;;6.83;3.23;;;16.80;99.90;;;;;;5021901;28;20443;-84
2021/10/26 11:43:54;;;;;;;7.10;3.50;;;16.60;99.90;;;;;;5023361;28;20767;-84
2021/10/26 11:46:28;;;;;;;9.17;3.10;;;16.60;99.90;;;;;;5021237;28;20462;-84
2021/10/26 11:48:58;;;;;;;6.17;3.60;;;16.80;99.90;;;;;;5022423;28;20491;-85
2021/10/26 11:51:30;;;;;;;6.50;3.43;;;16.70;99.90;;;;;;5024311;28;20451;-85
2021/10/26 11:54:01;;;;;;;6.17;3.30;;;16.70;99.90;;;;;;5024189;28;20552;-84
2021/10/26 11:56:33;;;;;;;5.63;2.50;;;16.60;99.90;;;;;;5024391;28;20463;-86
2021/10/26 11:59:03;;;;;;;7.33;3.40;;;16.40;99.90;;;;;;5022818;28;20518;-85
2021/10/26 12:01:38;;;;;;;6.20;3.70;;;16.20;99.90;;;;;;5027718;28;20459;-87
2021/10/26 12:04:06;;;;;;;8.70;3.07;;;16.10;99.90;;;;;;5023636;28;20518;-84
2021/10/26 12:06:37;;;;;;;8.87;3.67;;;16.00;99.90;;;;;;5024669;28;20452;-84
2021/10/26 12:09:09;;;;;;;5.97;3.40;;;16.00;99.90;;;;;;5027024;28;20477;-84
2021/10/26 12:11:38;;;;;;;4.80;3.20;;;16.10;99.90;;;;;;5022537;28;20482;-85
2021/10/26 12:14:28;;;;;;;7.23;3.57;;;16.10;99.90;;;;;;5024185;28;20487;-85
2021/10/26 12:17:25;;;;;;;6.73;2.97;;;16.10;99.90;;;;;;5021360;28;20470;-84
2021/10/26 12:19:57;;;;;;;6.40;2.87;;;16.10;99.90;;;;;;5025946;28;20432;-85
2021/10/26 12:22:28;;;;;;;6.90;3.00;;;16.00;99.90;;;;;;5025767;28;20427;-85
2021/10/26 12:25:00;;;;;;;5.73;2.93;;;16.00;99.90;;;;;;5023678;28;20407;-85
2021/10/26 12:27:33;;;;;;;7.60;3.27;;;16.20;99.90;;;;;;5024089;28;20500;-85
2021/10/26 12:30:15;;;;;;;5.70;3.40;;;16.30;99.90;;;;;;5037198;28;20411;-86
2021/10/26 12:32:46;;;;;;;10.80;3.40;;;16.30;99.90;;;;;;5027319;28;20463;-85
2021/10/26 12:35:14;;;;;;;4.53;3.00;;;16.20;99.90;;;;;;5025705;28;20559;-85
2021/10/26 12:37:41;;;;;;;4.33;2.70;;;16.10;99.90;;;;;;5027756;28;20446;-83
2021/10/26 12:40:20;;;;;;;5.90;2.80;;;16.10;99.90;;;;;;5024469;28;20462;-87
2021/10/26 12:42:57;;;;;;;8.73;3.10;;;15.90;99.90;;;;;;5032279;28;20425;-82
2021/10/26 12:45:33;;;;;;;5.60;3.27;;;15.90;99.90;;;;;;5027675;28;20461;-84
2021/10/26 12:48:03;;;;;;;6.13;3.37;;;15.90;99.90;;;;;;5025270;28;20498;-83
2021/10/26 12:50:45;;;;;;;6.03;3.20;;;15.90;99.90;;;;;;5024742;28;20449;-81
2021/10/26 12:53:18;;;;;;;6.70;3.10;;;15.90;99.90;;;;;;5026479;28;20472;-84
2021/10/26 12:55:49;;;;;;;7.07;3.33;;;16.10;99.90;;;;;;5022170;28;20443;-83
2021/10/26 12:58:41;;;;;;;7.27;3.80;;;16.20;99.90;;;;;;5020152;28;20538;-82